createdAt,value
2022-12-03T00:00:57.608Z,16.50
2022-12-03T00:01:57.597Z,16.20
2022-12-03T00:02:57.719Z,16.40
2022-12-03T00:03:57.768Z,16.20
2022-12-03T00:04:57.697Z,16.80
2022-12-03T00:05:57.558Z,16.80
2022-12-03T00:06:57.554Z,16.20
2022-12-03T00:07:57.669Z,16.80
2022-12-03T00:08:57.527Z,16.60
2022-12-03T00:09:57.506Z,17.20
2022-12-03T00:10:57.536Z,17.90
2022-12-03T00:11:57.771Z,16.40
2022-12-03T00:12:57.607Z,16.70
2022-12-03T00:13:57.476Z,16.10
2022-12-03T00:14:57.674Z,17.10
2022-12-03T00:15:57.497Z,16.60
2022-12-03T00:16:57.467Z,15.90
2022-12-03T00:17:57.708Z,16.30
2022-12-03T00:18:57.477Z,15.90
2022-12-03T00:19:57.405Z,15.80
2022-12-03T00:20:57.397Z,15.60
2022-12-03T00:21:57.442Z,16.90
2022-12-03T00:22:57.384Z,17.00
2022-12-03T00:23:57.365Z,17.20
2022-12-03T00:24:57.404Z,15.80
2022-12-03T00:25:57.336Z,17.00
2022-12-03T00:26:57.371Z,16.50
2022-12-03T00:27:57.325Z,16.00
2022-12-03T00:28:57.306Z,16.50
2022-12-03T00:29:57.341Z,15.60
2022-12-03T00:30:57.336Z,16.10
2022-12-03T00:31:57.280Z,15.50
2022-12-03T00:32:57.273Z,16.30
2022-12-03T00:33:57.261Z,16.20
2022-12-03T00:34:57.254Z,15.60
2022-12-03T00:35:57.261Z,16.90
2022-12-03T00:36:57.224Z,16.50
2022-12-03T00:37:57.210Z,16.60
2022-12-03T00:38:57.204Z,16.60
2022-12-03T00:39:57.229Z,16.50
2022-12-03T00:40:57.214Z,16.10
2022-12-03T00:41:57.182Z,15.50
2022-12-03T00:42:57.171Z,16.00
2022-12-03T00:43:57.146Z,16.00
2022-12-03T00:44:57.140Z,16.10
2022-12-03T00:45:57.198Z,17.10
2022-12-03T00:46:57.270Z,16.60
2022-12-03T00:47:57.154Z,16.50
2022-12-03T00:48:57.116Z,16.70
2022-12-03T00:49:57.082Z,17.20
2022-12-03T00:50:57.090Z,17.40
2022-12-03T00:51:57.112Z,16.30
2022-12-03T00:52:57.051Z,16.90
2022-12-03T00:53:57.041Z,16.90
2022-12-03T00:54:57.068Z,17.00
2022-12-03T00:55:57.024Z,16.90
2022-12-03T00:56:57.049Z,16.50
2022-12-03T00:57:56.998Z,16.90
2022-12-03T00:58:56.998Z,16.30
2022-12-03T00:59:56.972Z,17.10
2022-12-03T01:00:56.963Z,17.20
2022-12-03T01:01:57.145Z,15.90
2022-12-03T01:02:56.981Z,17.10
2022-12-03T01:03:56.938Z,18.10
2022-12-03T01:04:57.415Z,16.30
2022-12-03T01:05:56.922Z,16.70
2022-12-03T01:06:56.907Z,16.80
2022-12-03T01:07:56.985Z,18.20
2022-12-03T01:08:56.919Z,16.90
2022-12-03T01:09:56.879Z,16.90
2022-12-03T01:10:56.869Z,16.20
2022-12-03T01:11:56.849Z,17.20
2022-12-03T01:12:56.842Z,16.90
2022-12-03T01:13:56.831Z,17.20
2022-12-03T01:14:56.854Z,16.10
2022-12-03T01:15:56.855Z,17.00
2022-12-03T01:16:56.838Z,16.50
2022-12-03T01:17:56.781Z,17.10
2022-12-03T01:18:56.786Z,16.60
2022-12-03T01:19:56.766Z,17.00
2022-12-03T01:20:56.767Z,17.00
2022-12-03T01:21:56.737Z,17.10
2022-12-03T01:22:56.774Z,16.40
2022-12-03T01:23:56.730Z,17.30
2022-12-03T01:24:56.726Z,17.60
2022-12-03T01:25:56.708Z,17.30
2022-12-03T01:26:56.730Z,16.80
2022-12-03T01:27:56.675Z,16.30
2022-12-03T01:28:56.713Z,16.40
2022-12-03T01:29:56.651Z,16.80
2022-12-03T01:30:56.713Z,17.40
2022-12-03T01:31:56.638Z,16.70
2022-12-03T01:32:56.654Z,15.90
2022-12-03T01:33:56.615Z,17.10
2022-12-03T01:34:56.879Z,17.10
2022-12-03T01:35:56.586Z,16.70
2022-12-03T01:36:56.640Z,16.10
2022-12-03T01:37:56.585Z,17.30
2022-12-03T01:38:56.567Z,17.00
2022-12-03T01:39:56.547Z,17.00
2022-12-03T01:40:56.743Z,17.30
2022-12-03T01:41:56.542Z,16.40
2022-12-03T01:42:56.728Z,16.30
2022-12-03T01:43:56.529Z,17.40
2022-12-03T01:44:56.495Z,16.20
2022-12-03T01:45:56.487Z,17.00
2022-12-03T01:46:56.578Z,17.60
2022-12-03T01:47:56.517Z,16.80
2022-12-03T01:48:56.455Z,16.90
2022-12-03T01:49:56.445Z,17.20
2022-12-03T01:50:56.442Z,16.50
2022-12-03T01:51:56.463Z,17.10
2022-12-03T01:52:56.421Z,16.50
2022-12-03T01:53:56.461Z,16.20
2022-12-03T01:54:56.657Z,16.50
2022-12-03T01:55:56.392Z,16.90
2022-12-03T01:56:56.378Z,17.20
2022-12-03T01:57:56.355Z,17.10
2022-12-03T01:58:56.355Z,17.10
2022-12-03T01:59:56.364Z,17.80
2022-12-03T02:00:56.370Z,17.70
2022-12-03T02:01:56.434Z,17.40
2022-12-03T02:02:56.321Z,17.70
2022-12-03T02:03:56.353Z,16.80
2022-12-03T02:04:56.523Z,17.70
2022-12-03T02:05:56.310Z,18.50
2022-12-03T02:06:56.348Z,17.80
2022-12-03T02:07:56.298Z,18.00
2022-12-03T02:08:56.237Z,18.00
2022-12-03T02:09:56.220Z,17.30
2022-12-03T02:10:56.248Z,17.10
2022-12-03T02:11:56.200Z,17.30
2022-12-03T02:12:56.194Z,17.40
2022-12-03T02:13:56.180Z,18.40
2022-12-03T02:14:56.353Z,18.30
2022-12-03T02:15:56.403Z,18.40
2022-12-03T02:16:56.157Z,17.80
2022-12-03T02:17:56.146Z,18.30
2022-12-03T02:18:56.133Z,16.80
2022-12-03T02:19:56.126Z,17.80
2022-12-03T02:20:56.121Z,17.90
2022-12-03T02:21:56.117Z,17.80
2022-12-03T02:22:56.089Z,18.10
2022-12-03T02:23:56.094Z,18.30
2022-12-03T02:24:56.220Z,17.90
2022-12-03T02:25:56.039Z,16.90
2022-12-03T02:26:56.077Z,17.60
2022-12-03T02:27:56.059Z,16.70
2022-12-03T02:28:56.016Z,17.40
2022-12-03T02:29:56.006Z,17.60
2022-12-03T02:30:55.996Z,16.20
2022-12-03T02:31:56.046Z,18.70
2022-12-03T02:32:56.010Z,17.30
2022-12-03T02:33:55.964Z,17.50
2022-12-03T02:34:56.209Z,17.40
2022-12-03T02:36:00.435Z,16.60
2022-12-03T02:36:56.958Z,18.00
2022-12-03T02:37:55.928Z,17.50
2022-12-03T02:38:55.946Z,17.20
2022-12-03T02:39:55.901Z,17.40
2022-12-03T02:40:55.927Z,17.80
2022-12-03T02:41:55.877Z,17.50
2022-12-03T02:42:55.875Z,17.20
2022-12-03T02:43:55.876Z,18.60
2022-12-03T02:44:58.431Z,17.90
2022-12-03T02:45:56.829Z,16.70
2022-12-03T02:46:55.867Z,18.30
2022-12-03T02:47:55.810Z,17.50
2022-12-03T02:48:55.806Z,18.30
2022-12-03T02:49:55.822Z,17.90
2022-12-03T02:50:55.840Z,17.10
2022-12-03T02:51:55.756Z,17.70
2022-12-03T02:52:55.760Z,16.60
2022-12-03T02:53:55.794Z,18.40
2022-12-03T02:54:55.995Z,17.30
2022-12-03T02:55:55.762Z,18.00
2022-12-03T02:56:55.764Z,17.50
2022-12-03T02:57:55.705Z,16.40
2022-12-03T02:58:55.700Z,16.30
2022-12-03T02:59:55.676Z,18.50
2022-12-03T03:00:55.802Z,17.80
2022-12-03T03:01:55.683Z,17.10
2022-12-03T03:02:55.683Z,17.40
2022-12-03T03:03:55.635Z,18.00
2022-12-03T03:04:55.872Z,17.50
2022-12-03T03:05:55.682Z,18.30
2022-12-03T03:06:55.603Z,17.00
2022-12-03T03:07:55.635Z,18.20
2022-12-03T03:08:55.612Z,18.40
2022-12-03T03:09:55.607Z,17.50
2022-12-03T03:10:55.600Z,18.20
2022-12-03T03:11:55.571Z,18.00
2022-12-03T03:12:55.560Z,18.50
2022-12-03T03:13:55.525Z,17.80
2022-12-03T03:14:55.761Z,18.70
2022-12-03T03:15:55.598Z,18.50
2022-12-03T03:16:55.568Z,18.20
2022-12-03T03:17:55.482Z,18.60
2022-12-03T03:18:55.481Z,19.10
2022-12-03T03:19:55.527Z,17.30
2022-12-03T03:20:55.492Z,17.50
2022-12-03T03:21:55.440Z,17.70
2022-12-03T03:22:55.431Z,18.10
2022-12-03T03:23:55.421Z,16.90
2022-12-03T03:24:55.718Z,17.30
2022-12-03T03:25:55.510Z,18.30
2022-12-03T03:26:55.443Z,17.50
2022-12-03T03:27:55.371Z,16.80
2022-12-03T03:28:55.400Z,17.50
2022-12-03T03:29:55.360Z,17.10
2022-12-03T03:30:55.361Z,16.90
2022-12-03T03:31:55.359Z,16.90
2022-12-03T03:32:55.330Z,16.10
2022-12-03T03:33:55.363Z,16.90
2022-12-03T03:34:55.776Z,16.40
2022-12-03T03:35:55.302Z,16.70
2022-12-03T03:36:55.287Z,16.70
2022-12-03T03:37:55.269Z,16.00
2022-12-03T03:38:55.273Z,16.80
2022-12-03T03:39:55.271Z,17.40
2022-12-03T03:40:55.238Z,16.40
2022-12-03T03:41:55.258Z,15.80
2022-12-03T03:42:56.948Z,15.70
2022-12-03T03:43:55.227Z,16.90
2022-12-03T03:44:55.442Z,16.40
2022-12-03T03:45:55.221Z,15.80
2022-12-03T03:46:55.177Z,15.40
2022-12-03T03:47:55.167Z,16.10
2022-12-03T03:48:55.176Z,17.00
2022-12-03T03:49:55.140Z,15.40
2022-12-03T03:50:55.126Z,16.30
2022-12-03T03:51:55.134Z,15.90
2022-12-03T03:52:55.106Z,16.00
2022-12-03T03:53:55.101Z,15.00
2022-12-03T03:54:55.271Z,15.20
2022-12-03T03:57:05.068Z,16.20
2022-12-03T03:58:05.039Z,15.90
2022-12-03T03:59:05.057Z,16.30
2022-12-03T04:00:05.018Z,15.50
2022-12-03T04:01:05.081Z,15.80
2022-12-03T04:02:05.004Z,16.00
2022-12-03T04:03:04.997Z,16.20
2022-12-03T04:04:05.008Z,16.10
2022-12-03T04:05:05.025Z,15.80
2022-12-03T04:06:04.967Z,15.60
2022-12-03T04:07:04.956Z,16.50
2022-12-03T04:08:05.038Z,15.60
2022-12-03T04:09:04.927Z,17.10
2022-12-03T04:10:04.946Z,16.60
2022-12-03T04:11:04.965Z,16.80
2022-12-03T04:12:04.905Z,15.20
2022-12-03T04:13:04.897Z,16.60
2022-12-03T04:14:04.878Z,16.90
2022-12-03T04:15:04.961Z,16.70
2022-12-03T04:16:04.960Z,15.60
2022-12-03T04:17:04.908Z,15.20
2022-12-03T04:18:04.847Z,15.80
2022-12-03T04:19:04.834Z,16.60
2022-12-03T04:20:04.819Z,16.10
2022-12-03T04:21:04.856Z,16.40
2022-12-03T04:22:04.828Z,16.10
2022-12-03T04:23:04.796Z,16.60
2022-12-03T04:24:04.807Z,15.80
2022-12-03T04:25:04.773Z,15.80
2022-12-03T04:26:04.758Z,16.10
2022-12-03T04:27:04.745Z,17.40
2022-12-03T04:28:04.826Z,16.10
2022-12-03T04:29:04.726Z,15.30
2022-12-03T04:30:04.714Z,15.10
2022-12-03T04:31:04.747Z,16.70
2022-12-03T04:32:04.691Z,16.50
2022-12-03T04:33:04.758Z,16.20
2022-12-03T04:34:04.678Z,15.90
2022-12-03T04:35:04.737Z,16.70
2022-12-03T04:36:04.664Z,16.80
2022-12-03T04:37:04.647Z,16.70
2022-12-03T04:38:04.695Z,15.60
2022-12-03T04:39:04.621Z,15.80
2022-12-03T04:40:04.643Z,16.40
2022-12-03T04:41:04.604Z,16.40
2022-12-03T04:42:04.594Z,15.50
2022-12-03T04:43:04.581Z,16.20
2022-12-03T04:44:04.603Z,17.40
2022-12-03T04:45:04.593Z,16.70
2022-12-03T04:46:04.587Z,15.70
2022-12-03T04:47:04.552Z,16.70
2022-12-03T04:48:04.530Z,16.50
2022-12-03T04:49:04.524Z,15.70
2022-12-03T04:50:04.534Z,16.80
2022-12-03T04:51:04.522Z,16.90
2022-12-03T04:52:04.543Z,17.00
2022-12-03T04:53:04.482Z,17.90
2022-12-03T04:54:04.461Z,16.50
2022-12-03T04:55:04.451Z,16.40
2022-12-03T04:56:04.450Z,17.20
2022-12-03T04:57:04.631Z,15.60
2022-12-03T04:58:05.520Z,16.00
2022-12-03T04:59:04.448Z,16.40
2022-12-03T05:00:04.400Z,16.20
2022-12-03T05:01:04.439Z,16.40
2022-12-03T05:02:04.486Z,16.00
2022-12-03T05:03:04.432Z,16.20
2022-12-03T05:04:04.389Z,16.90
2022-12-03T05:05:04.350Z,15.80
2022-12-03T05:06:04.339Z,16.10
2022-12-03T05:07:04.392Z,15.80
2022-12-03T05:08:04.452Z,16.50
2022-12-03T05:09:04.307Z,16.00
2022-12-03T05:10:04.310Z,16.20
2022-12-03T05:11:04.299Z,16.60
2022-12-03T05:12:04.270Z,15.60
2022-12-03T05:13:04.266Z,16.90
2022-12-03T05:14:04.470Z,15.50
2022-12-03T05:15:04.270Z,15.00
2022-12-03T05:16:04.242Z,15.70
2022-12-03T05:17:04.342Z,16.70
2022-12-03T05:18:04.217Z,16.60
2022-12-03T05:19:04.209Z,16.50
2022-12-03T05:20:04.245Z,17.10
2022-12-03T05:21:04.186Z,16.70
2022-12-03T05:22:04.168Z,15.80
2022-12-03T05:23:04.169Z,16.10
2022-12-03T05:24:04.142Z,16.10
2022-12-03T05:25:04.177Z,15.90
2022-12-03T05:26:04.126Z,15.70
2022-12-03T05:27:04.145Z,16.40
2022-12-03T05:28:04.119Z,16.10
2022-12-03T05:29:04.099Z,15.60
2022-12-03T05:30:04.118Z,15.90
2022-12-03T05:31:04.137Z,17.30
2022-12-03T05:32:04.068Z,17.10
2022-12-03T05:33:04.053Z,16.50
2022-12-03T05:34:04.085Z,17.20
2022-12-03T05:35:08.608Z,18.20
2022-12-03T05:36:04.036Z,20.80
2022-12-03T05:37:04.013Z,30.30
2022-12-03T05:38:04.005Z,39.10
2022-12-03T05:39:04.035Z,46.90
2022-12-03T05:40:04.012Z,19.70
2022-12-03T05:41:04.034Z,18.50
2022-12-03T05:42:03.993Z,16.70
2022-12-03T05:43:03.972Z,17.90
2022-12-03T05:44:03.965Z,19.30
2022-12-03T05:45:04.005Z,28.00
2022-12-03T05:46:04.030Z,19.40
2022-12-03T05:47:03.903Z,26.80
2022-12-03T05:48:03.925Z,20.10
2022-12-03T05:49:03.912Z,26.40
2022-12-03T05:50:03.873Z,27.50
2022-12-03T05:51:03.894Z,20.70
2022-12-03T05:52:03.854Z,31.40
2022-12-03T05:53:03.860Z,24.20
2022-12-03T05:54:03.873Z,22.60
2022-12-03T05:55:03.864Z,16.70
2022-12-03T05:56:03.832Z,18.50
2022-12-03T05:57:03.802Z,19.50
2022-12-03T05:58:03.806Z,17.50
2022-12-03T05:59:03.773Z,19.00
2022-12-03T06:00:03.815Z,20.10
2022-12-03T06:01:03.761Z,19.50
2022-12-03T06:02:03.811Z,18.40
2022-12-03T06:03:03.938Z,16.80
2022-12-03T06:04:03.807Z,17.20
2022-12-03T06:05:03.718Z,16.70
2022-12-03T06:06:03.743Z,16.90
2022-12-03T06:07:03.695Z,15.60
2022-12-03T06:08:03.740Z,16.20
2022-12-03T06:09:03.675Z,15.90
2022-12-03T06:10:03.703Z,16.90
2022-12-03T06:11:03.650Z,16.80
2022-12-03T06:12:03.642Z,15.90
2022-12-03T06:13:03.639Z,16.60
2022-12-03T06:14:03.625Z,17.10
2022-12-03T06:15:03.600Z,17.20
2022-12-03T06:16:03.916Z,18.90
2022-12-03T06:17:03.601Z,17.10
2022-12-03T06:18:03.600Z,16.60
2022-12-03T06:19:03.579Z,16.80
2022-12-03T06:20:03.567Z,16.40
2022-12-03T06:21:03.578Z,16.90
2022-12-03T06:22:03.538Z,16.90
2022-12-03T06:23:03.521Z,17.50
2022-12-03T06:24:03.519Z,15.70
2022-12-03T06:25:06.529Z,15.90
2022-12-03T06:26:03.497Z,17.10
2022-12-03T06:27:03.520Z,16.30
2022-12-03T06:28:03.468Z,18.60
2022-12-03T06:29:03.459Z,16.50
2022-12-03T06:30:03.457Z,16.90
2022-12-03T06:31:03.535Z,16.10
2022-12-03T06:32:03.437Z,19.10
2022-12-03T06:33:03.460Z,17.10
2022-12-03T06:34:03.406Z,17.30
2022-12-03T06:35:03.396Z,17.00
2022-12-03T06:36:03.388Z,16.50
2022-12-03T06:37:03.367Z,16.90
2022-12-03T06:38:03.370Z,17.60
2022-12-03T06:39:03.426Z,15.60
2022-12-03T06:40:03.367Z,18.30
2022-12-03T06:41:03.348Z,16.10
2022-12-03T06:42:03.326Z,15.80
2022-12-03T06:43:03.347Z,18.10
2022-12-03T06:44:03.314Z,16.70
2022-12-03T06:45:03.286Z,16.30
2022-12-03T06:46:03.317Z,16.60
2022-12-03T06:47:03.336Z,16.80
2022-12-03T06:48:03.269Z,17.30
2022-12-03T06:49:03.293Z,15.10
2022-12-03T06:50:03.263Z,16.10
2022-12-03T06:51:03.242Z,16.10
2022-12-03T06:52:03.255Z,17.10
2022-12-03T06:53:03.225Z,15.70
2022-12-03T06:54:03.196Z,16.10
2022-12-03T06:55:03.204Z,21.90
2022-12-03T06:56:03.175Z,18.10
2022-12-03T06:57:03.187Z,17.50
2022-12-03T06:58:03.221Z,17.20
2022-12-03T06:59:03.142Z,17.70
2022-12-03T07:00:03.133Z,18.90
2022-12-03T07:01:03.124Z,25.60
2022-12-03T07:02:03.210Z,23.70
2022-12-03T07:03:03.152Z,16.70
2022-12-03T07:04:03.140Z,20.80
2022-12-03T07:05:03.070Z,21.10
2022-12-03T07:06:03.062Z,19.30
2022-12-03T07:07:03.055Z,17.30
2022-12-03T07:08:03.104Z,18.50
2022-12-03T07:09:03.033Z,18.60
2022-12-03T07:10:03.054Z,21.50
2022-12-03T07:11:03.013Z,18.90
2022-12-03T07:12:03.082Z,17.50
2022-12-03T07:13:02.993Z,16.70
2022-12-03T07:14:05.556Z,17.50
2022-12-03T07:15:02.971Z,16.00
2022-12-03T07:16:03.029Z,17.00
2022-12-03T07:17:03.026Z,16.70
2022-12-03T07:18:02.934Z,16.00
2022-12-03T07:19:02.931Z,17.40
2022-12-03T07:20:02.952Z,16.80
2022-12-03T07:21:02.941Z,16.50
2022-12-03T07:22:02.901Z,16.40
2022-12-03T07:23:02.880Z,17.30
2022-12-03T07:24:02.888Z,17.10
2022-12-03T07:25:02.897Z,19.90
2022-12-03T07:26:02.855Z,18.10
2022-12-03T07:27:02.844Z,17.70
2022-12-03T07:28:02.829Z,25.00
2022-12-03T07:29:02.822Z,20.00
2022-12-03T07:30:02.821Z,17.00
2022-12-03T07:31:02.973Z,18.40
2022-12-03T07:32:02.851Z,17.00
2022-12-03T07:33:02.778Z,17.90
2022-12-03T07:34:02.779Z,20.00
2022-12-03T07:35:02.769Z,19.10
2022-12-03T07:36:02.753Z,17.90
2022-12-03T07:37:02.830Z,19.00
2022-12-03T07:38:02.737Z,17.50
2022-12-03T07:39:02.768Z,19.40
2022-12-03T07:40:02.714Z,17.80
2022-12-03T07:41:02.712Z,18.50
2022-12-03T07:42:02.685Z,17.70
2022-12-03T07:43:02.699Z,18.50
2022-12-03T07:44:02.712Z,17.80
2022-12-03T07:45:02.677Z,18.70
2022-12-03T07:46:02.706Z,17.90
2022-12-03T07:47:02.755Z,17.80
2022-12-03T07:48:02.690Z,17.60
2022-12-03T07:49:02.604Z,18.50
2022-12-03T07:50:02.612Z,20.10
2022-12-03T07:51:02.594Z,20.70
2022-12-03T07:52:02.620Z,19.00
2022-12-03T07:53:02.590Z,18.00
2022-12-03T07:54:02.608Z,17.00
2022-12-03T07:55:02.581Z,19.40
2022-12-03T07:56:02.587Z,20.40
2022-12-03T07:57:02.527Z,17.40
2022-12-03T07:58:02.537Z,17.30
2022-12-03T07:59:02.597Z,19.90
2022-12-03T08:00:02.829Z,25.00
2022-12-03T08:01:02.672Z,19.00
2022-12-03T08:02:02.630Z,18.70
2022-12-03T08:03:02.473Z,16.70
2022-12-03T08:04:02.584Z,19.10
2022-12-03T08:05:02.457Z,18.90
2022-12-03T08:06:02.425Z,20.00
2022-12-03T08:07:02.446Z,18.00
2022-12-03T08:08:02.510Z,19.20
2022-12-03T08:09:02.924Z,18.50
2022-12-03T08:10:02.384Z,19.00
2022-12-03T08:11:02.393Z,21.10
2022-12-03T08:12:02.476Z,19.90
2022-12-03T08:13:02.372Z,20.00
2022-12-03T08:14:02.389Z,17.70
2022-12-03T08:15:02.333Z,17.50
2022-12-03T08:16:02.402Z,18.20
2022-12-03T08:17:02.331Z,17.80
2022-12-03T08:18:02.302Z,17.30
2022-12-03T08:19:02.312Z,17.40
2022-12-03T08:20:02.316Z,17.00
2022-12-03T08:21:02.343Z,17.40
2022-12-03T08:22:02.273Z,17.30
2022-12-03T08:23:02.237Z,18.30
2022-12-03T08:24:02.283Z,18.40
2022-12-03T08:25:02.218Z,16.50
2022-12-03T08:26:02.264Z,17.10
2022-12-03T08:27:02.210Z,17.80
2022-12-03T08:28:02.192Z,17.30
2022-12-03T08:29:02.178Z,17.80
2022-12-03T08:30:02.167Z,16.10
2022-12-03T08:31:02.187Z,17.20
2022-12-03T08:32:02.190Z,17.70
2022-12-03T08:33:02.141Z,17.70
2022-12-03T08:34:02.121Z,27.20
2022-12-03T08:35:02.141Z,35.00
2022-12-03T08:36:02.101Z,36.00
2022-12-03T08:37:02.359Z,22.40
2022-12-03T08:38:02.093Z,21.20
2022-12-03T08:39:02.109Z,26.80
2022-12-03T08:40:02.089Z,18.10
2022-12-03T08:41:02.081Z,22.00
2022-12-03T08:42:02.058Z,24.70
2022-12-03T08:43:02.031Z,18.90
2022-12-03T08:44:02.101Z,34.80
2022-12-03T08:45:02.043Z,29.50
2022-12-03T08:46:02.110Z,20.40
2022-12-03T08:47:02.012Z,21.40
2022-12-03T08:48:01.994Z,20.50
2022-12-03T08:49:02.008Z,21.80
2022-12-03T08:50:02.076Z,21.40
2022-12-03T08:51:01.980Z,19.20
2022-12-03T08:52:02.898Z,20.30
2022-12-03T08:53:01.925Z,18.60
2022-12-03T08:54:02.531Z,17.80
2022-12-03T08:55:01.947Z,18.90
2022-12-03T08:56:01.897Z,18.60
2022-12-03T08:57:01.879Z,19.30
2022-12-03T08:58:01.869Z,19.40
2022-12-03T08:59:01.888Z,18.80
2022-12-03T09:00:01.907Z,19.90
2022-12-03T09:01:01.891Z,18.40
2022-12-03T09:02:01.924Z,17.80
2022-12-03T09:03:01.818Z,18.60
2022-12-03T09:04:01.905Z,24.70
2022-12-03T09:05:01.823Z,22.60
2022-12-03T09:06:01.803Z,19.80
2022-12-03T09:07:01.775Z,18.20
2022-12-03T09:08:01.979Z,18.30
2022-12-03T09:09:06.555Z,19.50
2022-12-03T09:10:02.805Z,18.70
2022-12-03T09:11:01.754Z,18.40
2022-12-03T09:12:01.733Z,19.80
2022-12-03T09:13:01.723Z,18.80
2022-12-03T09:14:01.723Z,19.30
2022-12-03T09:15:01.726Z,19.70
2022-12-03T09:16:01.681Z,20.60
2022-12-03T09:17:01.870Z,20.40
2022-12-03T09:18:01.695Z,19.70
2022-12-03T09:19:01.664Z,19.00
2022-12-03T09:20:01.662Z,19.00
2022-12-03T09:21:01.624Z,19.60
2022-12-03T09:22:01.676Z,18.50
2022-12-03T09:23:01.603Z,20.00
2022-12-03T09:24:01.594Z,19.40
2022-12-03T09:25:01.588Z,19.20
2022-12-03T09:26:01.657Z,19.30
2022-12-03T09:27:01.562Z,19.70
2022-12-03T09:28:01.555Z,19.70
2022-12-03T09:29:01.551Z,20.70
2022-12-03T09:30:01.566Z,19.70
2022-12-03T09:31:01.573Z,19.30
2022-12-03T09:32:01.649Z,19.80
2022-12-03T09:33:01.491Z,22.40
2022-12-03T09:34:01.493Z,19.00
2022-12-03T09:35:01.485Z,19.10
2022-12-03T09:36:01.521Z,19.40
2022-12-03T09:37:01.552Z,18.90
2022-12-03T09:38:01.493Z,19.50
2022-12-03T09:39:01.439Z,19.30
2022-12-03T09:40:01.432Z,19.60
2022-12-03T09:41:01.435Z,20.20
2022-12-03T09:42:01.513Z,18.80
2022-12-03T09:43:01.409Z,20.80
2022-12-03T09:44:04.286Z,19.20
2022-12-03T09:45:01.405Z,17.70
2022-12-03T09:46:01.396Z,19.20
2022-12-03T09:47:01.354Z,19.60
2022-12-03T09:48:01.339Z,19.20
2022-12-03T09:49:01.337Z,18.90
2022-12-03T09:50:01.339Z,19.20
2022-12-03T09:51:01.366Z,19.10
2022-12-03T09:52:01.301Z,18.10
2022-12-03T09:53:01.299Z,18.10
2022-12-03T09:54:01.316Z,19.90
2022-12-03T09:55:01.269Z,18.60
2022-12-03T09:56:01.349Z,18.40
2022-12-03T09:57:08.309Z,18.40
2022-12-03T09:58:01.227Z,19.90
2022-12-03T09:59:01.221Z,19.30
2022-12-03T10:00:01.209Z,19.80
2022-12-03T10:01:01.276Z,20.40
2022-12-03T10:02:01.303Z,19.20
2022-12-03T10:03:01.218Z,18.50
2022-12-03T10:04:01.223Z,18.30
2022-12-03T10:05:01.224Z,18.30
2022-12-03T10:06:01.156Z,20.70
2022-12-03T10:07:01.157Z,19.10
2022-12-03T10:08:01.201Z,19.50
2022-12-03T10:09:01.185Z,18.30
2022-12-03T10:10:01.108Z,17.30
2022-12-03T10:11:01.112Z,17.70
2022-12-03T10:12:01.082Z,18.10
2022-12-03T10:13:01.076Z,18.80
2022-12-03T10:14:01.068Z,18.00
2022-12-03T10:15:01.207Z,18.60
2022-12-03T10:16:01.068Z,18.10
2022-12-03T10:17:01.149Z,19.10
2022-12-03T10:18:01.026Z,18.50
2022-12-03T10:19:01.024Z,19.00
2022-12-03T10:20:00.994Z,19.00
2022-12-03T10:21:00.995Z,18.20
2022-12-03T10:22:01.024Z,19.50
2022-12-03T10:23:00.975Z,19.60
2022-12-03T10:24:00.966Z,19.10
2022-12-03T10:25:00.946Z,19.20
2022-12-03T10:26:00.940Z,18.80
2022-12-03T10:27:00.976Z,20.90
2022-12-03T10:28:00.935Z,19.70
2022-12-03T10:29:00.912Z,18.10
2022-12-03T10:30:00.913Z,20.00
2022-12-03T10:31:00.953Z,20.30
2022-12-03T10:32:00.904Z,21.10
2022-12-03T10:33:00.873Z,19.80
2022-12-03T10:34:00.853Z,19.40
2022-12-03T10:35:00.853Z,19.00
2022-12-03T10:36:00.832Z,19.00
2022-12-03T10:37:00.882Z,19.30
2022-12-03T10:38:00.843Z,18.70
2022-12-03T10:39:00.802Z,20.20
2022-12-03T10:40:00.792Z,18.80
2022-12-03T10:41:00.782Z,17.50
2022-12-03T10:42:00.771Z,19.10
2022-12-03T10:43:00.782Z,18.40
2022-12-03T10:44:00.771Z,18.70
2022-12-03T10:45:00.742Z,19.80
2022-12-03T10:46:04.127Z,18.10
2022-12-03T10:47:00.898Z,18.80
2022-12-03T10:48:00.724Z,19.30
2022-12-03T10:49:00.842Z,18.20
2022-12-03T10:50:00.690Z,19.30
2022-12-03T10:51:00.715Z,20.70
2022-12-03T10:52:00.672Z,19.00
2022-12-03T10:53:00.651Z,18.80
2022-12-03T10:54:00.641Z,18.50
2022-12-03T10:55:00.634Z,18.70
2022-12-03T10:56:00.621Z,20.10
2022-12-03T10:57:00.638Z,19.20
2022-12-03T10:58:00.613Z,19.50
2022-12-03T10:59:00.602Z,19.30
2022-12-03T11:00:00.570Z,18.70
2022-12-03T11:01:00.623Z,18.40
2022-12-03T11:02:00.651Z,17.30
2022-12-03T11:03:00.570Z,18.40
2022-12-03T11:04:00.579Z,19.00
2022-12-03T11:05:00.531Z,18.60
2022-12-03T11:06:00.519Z,18.90
2022-12-03T11:07:00.608Z,19.30
2022-12-03T11:08:00.589Z,17.50
2022-12-03T11:09:06.930Z,18.00
2022-12-03T11:10:01.473Z,19.00
2022-12-03T11:11:00.457Z,19.10
2022-12-03T11:12:00.448Z,18.60
2022-12-03T11:13:00.466Z,18.20
2022-12-03T11:14:00.416Z,17.70
2022-12-03T11:15:00.452Z,18.50
2022-12-03T11:16:00.448Z,17.20
2022-12-03T11:17:00.401Z,18.80
2022-12-03T11:18:00.384Z,18.60
2022-12-03T11:19:00.399Z,18.20
2022-12-03T11:20:00.370Z,18.00
2022-12-03T11:21:00.357Z,17.90
2022-12-03T11:22:00.426Z,17.30
2022-12-03T11:23:00.337Z,17.50
2022-12-03T11:24:00.346Z,17.60
2022-12-03T11:25:00.317Z,25.60
2022-12-03T11:26:00.316Z,19.40
2022-12-03T11:27:00.356Z,20.20
2022-12-03T11:28:00.296Z,21.80
2022-12-03T11:29:00.275Z,20.30
2022-12-03T11:30:00.362Z,18.40
2022-12-03T11:31:00.302Z,19.30
2022-12-03T11:32:00.271Z,19.80
2022-12-03T11:33:00.227Z,19.00
2022-12-03T11:34:00.205Z,18.50
2022-12-03T11:35:00.222Z,19.50
2022-12-03T11:36:00.224Z,18.50
2022-12-03T11:37:01.966Z,21.10
2022-12-03T11:38:00.165Z,18.70
2022-12-03T11:39:00.164Z,20.20
2022-12-03T11:40:00.185Z,18.30
2022-12-03T11:41:00.144Z,19.70
2022-12-03T11:42:00.124Z,18.80
2022-12-03T11:43:00.133Z,18.90
2022-12-03T11:44:00.131Z,19.10
2022-12-03T11:45:00.104Z,19.10
2022-12-03T11:46:04.290Z,17.10
2022-12-03T11:47:00.213Z,18.00
2022-12-03T11:48:00.100Z,18.30
2022-12-03T11:49:00.088Z,18.70
2022-12-03T11:50:00.054Z,19.10
2022-12-03T11:51:00.042Z,18.90
2022-12-03T11:52:00.055Z,20.70
2022-12-03T11:53:00.029Z,20.30
2022-12-03T11:54:00.030Z,19.50
2022-12-03T11:54:59.991Z,19.10
2022-12-03T11:56:04.242Z,19.00
2022-12-03T11:56:59.971Z,18.60
2022-12-03T11:57:59.970Z,19.90
2022-12-03T11:58:59.981Z,21.10
2022-12-03T11:59:59.931Z,19.70
2022-12-03T12:00:59.931Z,19.70
2022-12-03T12:01:59.930Z,20.40
2022-12-03T12:02:59.953Z,21.20
2022-12-03T12:03:59.950Z,21.50
2022-12-03T12:04:59.890Z,19.70
2022-12-03T12:05:59.881Z,19.90
2022-12-03T12:06:59.890Z,20.00
2022-12-03T12:07:59.975Z,20.50
2022-12-03T12:08:59.959Z,19.80
2022-12-03T12:09:59.839Z,19.90
2022-12-03T12:10:59.859Z,20.20
2022-12-03T12:11:59.831Z,19.70
2022-12-03T12:12:59.819Z,17.50
2022-12-03T12:13:59.819Z,18.90
2022-12-03T12:14:59.791Z,19.00
2022-12-03T12:15:59.820Z,19.30
2022-12-03T12:16:59.758Z,21.70
2022-12-03T12:17:59.749Z,21.20
2022-12-03T12:18:59.788Z,17.80
2022-12-03T12:20:00.125Z,18.70
2022-12-03T12:20:59.718Z,20.40
2022-12-03T12:21:59.739Z,19.10
2022-12-03T12:22:59.698Z,19.70
2022-12-03T12:23:59.688Z,19.80
2022-12-03T12:24:59.768Z,18.80
2022-12-03T12:25:59.667Z,19.70
2022-12-03T12:26:59.668Z,19.40
2022-12-03T12:27:59.648Z,19.10
2022-12-03T12:28:59.646Z,17.70
2022-12-03T12:29:59.627Z,18.50
2022-12-03T12:30:59.802Z,19.70
2022-12-03T12:31:59.646Z,18.50
2022-12-03T12:32:59.626Z,18.40
2022-12-03T12:33:59.590Z,19.60
2022-12-03T12:34:59.577Z,18.20
2022-12-03T12:35:59.595Z,18.80
2022-12-03T12:36:59.558Z,18.40
2022-12-03T12:38:00.625Z,19.20
2022-12-03T12:38:59.536Z,18.20
2022-12-03T12:39:59.585Z,18.50
2022-12-03T12:40:59.527Z,18.50
2022-12-03T12:41:59.500Z,18.00
2022-12-03T12:42:59.503Z,17.70
2022-12-03T12:43:59.474Z,17.50
2022-12-03T12:44:59.724Z,18.30
2022-12-03T12:46:00.809Z,16.70
2022-12-03T12:47:00.537Z,17.80
2022-12-03T12:47:59.454Z,17.40
2022-12-03T12:49:00.012Z,19.50
2022-12-03T12:49:59.431Z,18.20
2022-12-03T12:50:59.434Z,18.70
2022-12-03T12:51:59.394Z,18.20
2022-12-03T12:52:59.390Z,18.60
2022-12-03T12:54:00.194Z,18.10